Time;durP1;ratioP1;P1;durP2;ratioP2;P2;SDS_P1;SDS_P2;PMS_P1;PMS_P2;Temp;Humidity;BMP_temperature;BMP_pressure;BME280_temperature;BME280_humidity;BME280_pressure;Samples;Min_cycle;Max_cycle;Signal;HPM_P1;HPM_P2
2022/06/02 00:01:05;;;;;;;22.10;10.70;;;21.10;99.90;;;;;;4927926;29;20082;-91
2022/06/02 00:03:49;;;;;;;21.67;9.90;;;21.10;99.90;;;;;;4905635;29;20036;-91
2022/06/02 00:06:37;;;;;;;22.90;10.63;;;21.10;99.90;;;;;;4905470;29;20031;-89
2022/06/02 00:09:42;;;;;;;24.45;9.75;;;21.10;99.90;;;;;;4920865;29;20087;-89
2022/06/02 00:12:13;;;;;;;15.68;9.23;;;21.10;99.90;;;;;;4920442;29;20039;-89
2022/06/02 00:15:04;;;;;;;20.70;9.30;;;21.10;99.90;;;;;;4905206;29;20067;-88
2022/06/02 00:17:53;;;;;;;18.02;8.95;;;21.00;99.90;;;;;;4905212;29;20604;-91
2022/06/02 00:20:38;;;;;;;20.90;8.98;;;21.10;99.90;;;;;;4905145;29;20059;-89
2022/06/02 00:23:33;;;;;;;25.35;8.90;;;21.10;99.90;;;;;;4905433;29;20042;-89
2022/06/02 00:26:10;;;;;;;15.25;8.90;;;21.10;99.90;;;;;;4905086;29;20036;-90
2022/06/02 00:29:05;;;;;;;24.30;11.18;;;21.00;99.90;;;;;;4905137;29;20084;-89
2022/06/02 00:31:42;;;;;;;28.17;11.75;;;21.00;99.90;;;;;;4905060;29;20039;-89
2022/06/02 00:34:34;;;;;;;29.15;11.30;;;20.90;99.90;;;;;;4904809;29;20028;-90
2022/06/02 00:37:37;;;;;;;20.42;9.80;;;21.00;99.90;;;;;;4920490;29;20046;-90
2022/06/02 00:40:09;;;;;;;27.40;10.50;;;20.90;99.90;;;;;;4904981;29;20400;-88
2022/06/02 00:43:12;;;;;;;19.25;10.00;;;20.90;99.90;;;;;;4920729;29;20052;-89
2022/06/02 00:45:45;;;;;;;27.65;10.13;;;20.90;99.90;;;;;;4904800;29;20473;-90
2022/06/02 00:48:27;;;;;;;29.35;9.90;;;20.80;99.90;;;;;;4920287;29;20040;-89
2022/06/02 00:51:06;;;;;;;19.95;8.93;;;20.80;99.90;;;;;;4904594;29;20028;-90
2022/06/02 00:57:37;;;;;;;15.98;8.45;;;20.80;99.90;;;;;;4826855;29;20052;-89
2022/06/02 01:00:18;;;;;;;27.80;9.73;;;20.80;99.90;;;;;;4831501;29;20149;-89
2022/06/02 01:02:56;;;;;;;19.75;8.57;;;20.90;99.90;;;;;;4903391;29;20039;-90
2022/06/02 01:05:56;;;;;;;19.35;9.20;;;20.90;99.90;;;;;;4923324;29;20035;-89
2022/06/02 01:09:05;;;;;;;18.58;8.27;;;20.90;99.90;;;;;;4923363;29;20027;-89
2022/06/02 01:11:53;;;;;;;17.35;8.10;;;21.00;99.90;;;;;;4923466;29;20400;-89
2022/06/02 01:14:57;;;;;;;19.15;8.45;;;20.90;99.90;;;;;;4923515;29;20082;-89
2022/06/02 01:17:30;;;;;;;24.42;8.18;;;20.90;99.90;;;;;;4923356;29;20039;-89
2022/06/02 01:20:24;;;;;;;17.17;9.23;;;20.90;99.90;;;;;;4922957;29;20436;-90
2022/06/02 01:23:28;;;;;;;20.52;9.68;;;20.90;99.90;;;;;;4923389;29;20039;-89
2022/06/02 01:26:32;;;;;;;22.23;9.20;;;20.90;99.90;;;;;;4923260;29;20038;-89
2022/06/02 01:29:04;;;;;;;17.17;8.85;;;20.90;99.90;;;;;;4938831;29;20118;-90
2022/06/02 01:31:52;;;;;;;23.83;9.65;;;20.90;99.90;;;;;;4923266;29;20397;-89
2022/06/02 01:34:33;;;;;;;25.02;10.73;;;20.80;99.90;;;;;;4938817;29;20122;-88
2022/06/02 01:37:48;;;;;;;21.92;11.63;;;20.80;99.90;;;;;;4923371;29;20043;-89
2022/06/02 01:40:38;;;;;;;26.98;11.38;;;20.70;99.90;;;;;;4829462;29;20041;-88
2022/06/02 01:43:27;;;;;;;25.20;11.20;;;20.70;99.90;;;;;;4803056;29;20033;-90
2022/06/02 01:46:29;;;;;;;28.92;11.68;;;20.70;99.90;;;;;;4829371;29;20034;-89
2022/06/02 01:49:32;;;;;;;24.08;10.25;;;20.70;99.90;;;;;;4829277;29;20041;-89
2022/06/02 01:52:36;;;;;;;28.30;10.50;;;20.70;99.90;;;;;;4829497;29;20030;-88
2022/06/02 01:55:10;;;;;;;23.15;10.07;;;20.70;99.90;;;;;;4829453;29;20038;-88
2022/06/02 01:58:07;;;;;;;16.75;9.30;;;20.70;99.90;;;;;;4829589;29;20057;-88
2022/06/02 02:00:35;;;;;;;22.40;9.65;;;20.70;99.90;;;;;;4844042;29;20472;-88
2022/06/02 02:03:22;;;;;;;26.17;9.57;;;20.70;99.90;;;;;;4844462;29;20653;-88
2022/06/02 02:06:22;;;;;;;22.02;9.55;;;20.70;99.90;;;;;;4844329;29;20037;-89
2022/06/02 02:09:36;;;;;;;23.25;9.30;;;20.70;99.90;;;;;;4844672;29;20116;-89
2022/06/02 02:12:07;;;;;;;20.83;8.45;;;20.60;99.90;;;;;;4844429;29;20037;-89
2022/06/02 02:14:53;;;;;;;19.40;7.65;;;20.60;99.90;;;;;;4844290;29;20029;-89
2022/06/02 02:17:32;;;;;;;20.20;7.53;;;20.60;99.90;;;;;;4917201;29;20497;-89
2022/06/02 02:20:06;;;;;;;13.52;6.97;;;20.70;99.90;;;;;;4922752;29;20061;-89
2022/06/02 02:23:29;;;;;;;18.48;6.95;;;20.70;99.90;;;;;;4922926;29;20122;-90
2022/06/02 02:26:23;;;;;;;16.58;6.15;;;20.70;99.90;;;;;;4829056;29;20033;-88
2022/06/02 02:29:18;;;;;;;17.83;6.70;;;20.80;99.90;;;;;;4829007;29;20042;-88
2022/06/02 02:32:00;;;;;;;19.95;6.53;;;20.70;99.90;;;;;;4829157;29;20030;-88
2022/06/02 02:34:45;;;;;;;25.85;6.55;;;20.70;99.90;;;;;;4847420;29;20116;-88
2022/06/02 02:37:21;;;;;;;12.90;5.78;;;20.70;99.90;;;;;;4841130;29;20515;-88
2022/06/02 02:40:15;;;;;;;14.18;5.95;;;20.70;99.90;;;;;;4832030;29;20065;-89
2022/06/02 02:43:06;;;;;;;16.83;6.57;;;20.70;99.90;;;;;;4847588;29;20048;-89
2022/06/02 02:45:58;;;;;;;18.38;6.45;;;20.70;99.90;;;;;;4832044;29;20044;-89
2022/06/02 02:48:46;;;;;;;17.15;5.97;;;20.60;99.90;;;;;;4832017;29;20076;-90
2022/06/02 02:51:48;;;;;;;14.20;6.18;;;20.60;99.90;;;;;;4847135;29;20116;-90
2022/06/02 02:54:36;;;;;;;18.48;6.10;;;20.60;99.90;;;;;;4829434;29;20141;-89
2022/06/02 02:57:45;;;;;;;18.67;5.75;;;20.60;99.90;;;;;;4831896;29;20487;-89
2022/06/02 03:00:26;;;;;;;18.15;5.80;;;20.60;99.90;;;;;;4813405;29;20045;-90
2022/06/02 03:03:12;;;;;;;15.93;6.18;;;20.60;99.90;;;;;;4925654;29;20117;-89
2022/06/02 03:06:11;;;;;;;11.20;6.30;;;20.60;99.90;;;;;;4925529;29;20050;-88
2022/06/02 03:09:05;;;;;;;16.25;7.22;;;20.50;99.90;;;;;;4925396;29;20031;-89
2022/06/02 03:11:54;;;;;;;17.42;6.18;;;20.50;99.90;;;;;;4925354;29;20031;-88
2022/06/02 03:14:30;;;;;;;19.63;5.93;;;20.40;99.90;;;;;;4925502;29;20121;-89
2022/06/02 03:17:22;;;;;;;17.50;5.85;;;20.40;99.90;;;;;;4925250;29;20485;-89
2022/06/02 03:20:08;;;;;;;14.68;5.43;;;20.40;99.90;;;;;;4924884;29;20039;-89
2022/06/02 03:22:53;;;;;;;17.25;6.32;;;20.40;99.90;;;;;;4925207;29;20489;-89
2022/06/02 03:25:50;;;;;;;13.00;5.68;;;20.40;99.90;;;;;;4925166;29;20067;-90
2022/06/02 03:29:11;;;;;;;13.02;5.30;;;20.30;99.90;;;;;;4925077;29;20031;-89
2022/06/02 03:32:08;;;;;;;17.02;6.10;;;20.30;99.90;;;;;;4831489;29;20087;-89
2022/06/02 03:34:53;;;;;;;16.23;5.93;;;20.30;99.90;;;;;;4831479;29;20033;-89
2022/06/02 03:37:31;;;;;;;;;;;20.30;99.90;;;;;;4831202;29;20046;-88
2022/06/02 03:40:38;;;;;;;14.40;5.80;;;20.40;99.90;;;;;;4846464;29;20362;-89
2022/06/02 03:43:20;;;;;;;22.48;6.72;;;20.30;99.90;;;;;;4830389;29;20082;-90
2022/06/02 03:45:59;;;;;;;14.57;5.93;;;20.30;99.90;;;;;;4831077;29;20074;-89
2022/06/02 03:48:53;;;;;;;13.77;5.28;;;20.30;99.90;;;;;;4839853;29;20065;-88
2022/06/02 03:51:31;;;;;;;15.20;6.00;;;20.30;99.90;;;;;;4840867;29;20124;-90
2022/06/02 03:54:30;;;;;;;14.63;5.88;;;20.30;99.90;;;;;;4831035;29;20388;-89
2022/06/02 03:57:18;;;;;;;15.82;6.20;;;20.40;99.90;;;;;;4845976;29;20049;-90
2022/06/02 04:00:08;;;;;;;20.50;5.90;;;20.40;99.90;;;;;;4830659;29;20038;-91
2022/06/02 04:02:44;;;;;;;15.07;7.28;;;20.50;99.90;;;;;;4845944;29;20074;-90
2022/06/02 04:05:35;;;;;;;19.08;6.72;;;20.50;99.90;;;;;;4873205;29;20064;-90
2022/06/02 04:08:05;;;;;;;21.02;7.18;;;20.60;99.90;;;;;;4924432;29;20031;-89
2022/06/02 04:11:11;;;;;;;17.75;6.93;;;20.60;99.90;;;;;;4924316;29;20027;-89
2022/06/02 04:14:08;;;;;;;15.52;6.90;;;20.70;99.90;;;;;;4924405;29;20496;-90
2022/06/02 04:17:14;;;;;;;20.45;7.10;;;20.80;99.90;;;;;;4923902;29;20038;-88
2022/06/02 04:23:23;;;;;;;24.02;9.32;;;21.00;99.90;;;;;;4845476;29;20045;-89
2022/06/02 04:26:12;;;;;;;16.60;8.52;;;21.00;99.90;;;;;;4845510;29;20089;-88
2022/06/02 04:28:45;;;;;;;23.13;9.15;;;21.10;99.90;;;;;;4830390;29;20045;-90
2022/06/02 04:31:30;;;;;;;26.00;8.35;;;21.40;99.90;;;;;;4830705;29;20041;-88
2022/06/02 04:34:21;;;;;;;17.67;7.63;;;21.60;99.90;;;;;;4845404;29;20036;-90
2022/06/02 04:37:33;;;;;;;16.30;7.00;;;22.50;99.90;;;;;;4830214;29;20515;-89
2022/06/02 04:40:30;;;;;;;18.60;7.20;;;24.20;99.90;;;;;;4830209;29;20144;-88
2022/06/02 04:43:45;;;;;;;17.73;8.35;;;25.90;99.90;;;;;;4830096;29;20041;-89
2022/06/02 04:46:18;;;;;;;18.58;7.30;;;26.10;99.90;;;;;;4775841;29;20057;-89
2022/06/02 04:49:31;;;;;;;15.05;6.40;;;26.10;99.90;;;;;;4776055;29;20031;-89
2022/06/02 04:51:58;;;;;;;11.77;6.15;;;26.60;99.90;;;;;;4772898;29;20128;-87
2022/06/02 04:55:07;;;;;;;13.95;6.50;;;26.30;99.90;;;;;;4790055;29;20523;-89
2022/06/02 04:57:47;;;;;;;11.55;6.18;;;26.40;99.90;;;;;;4835410;29;20077;-89
2022/06/02 05:00:51;;;;;;;16.10;7.07;;;26.90;99.90;;;;;;4829416;29;20049;-90
2022/06/02 05:03:46;;;;;;;17.58;6.80;;;27.80;99.90;;;;;;4790313;29;20046;-90
2022/06/02 05:06:31;;;;;;;14.77;6.05;;;27.80;99.90;;;;;;4790721;29;20198;-90
2022/06/02 05:09:19;;;;;;;13.52;6.68;;;28.20;99.90;;;;;;4789885;29;20043;-88
2022/06/02 05:12:11;;;;;;;9.82;5.50;;;28.40;99.90;;;;;;4805360;29;20041;-89
2022/06/02 05:15:04;;;;;;;12.98;6.40;;;28.90;99.90;;;;;;4790249;29;20039;-88
2022/06/02 05:17:54;;;;;;;11.23;5.55;;;29.20;99.90;;;;;;4766044;29;20091;-89
2022/06/02 05:21:03;;;;;;;11.48;5.93;;;29.10;99.90;;;;;;4805297;29;20039;-88
2022/06/02 05:23:45;;;;;;;14.13;5.47;;;29.10;99.90;;;;;;4790534;29;20034;-88
2022/06/02 05:26:29;;;;;;;13.35;5.45;;;29.10;99.90;;;;;;4786807;29;20220;-88
2022/06/02 05:29:33;;;;;;;11.05;5.20;;;28.50;99.90;;;;;;4878555;29;20519;-88
2022/06/02 05:32:18;;;;;;;8.18;5.15;;;28.10;99.90;;;;;;4878492;29;20134;-89
2022/06/02 05:35:24;;;;;;;9.27;5.75;;;28.20;99.90;;;;;;4878586;29;20075;-91
2022/06/02 05:38:17;;;;;;;7.35;4.88;;;28.70;99.90;;;;;;4845783;29;20150;-87
2022/06/02 05:41:18;;;;;;;10.13;5.27;;;28.40;99.90;;;;;;4920189;29;20126;-87
2022/06/02 05:44:19;;;;;;;10.40;5.10;;;29.20;99.90;;;;;;4923035;29;20030;-87
2022/06/02 05:47:04;;;;;;;11.93;5.28;;;29.60;99.90;;;;;;4923534;29;20098;-88
2022/06/02 05:49:40;;;;;;;11.77;5.85;;;29.70;99.90;;;;;;4938564;29;20035;-85
2022/06/02 05:52:38;;;;;;;11.35;5.70;;;29.40;99.90;;;;;;4922923;29;20031;-86
2022/06/02 05:55:49;;;;;;;19.90;5.53;;;29.40;99.90;;;;;;4922878;29;20038;-86
2022/06/02 05:58:53;;;;;;;8.40;5.55;;;29.80;99.90;;;;;;4915653;29;20055;-87
2022/06/02 06:01:42;;;;;;;10.20;4.32;;;30.20;99.90;;;;;;4922563;29;20055;-86
2022/06/02 06:04:34;;;;;;;8.07;4.70;;;30.10;99.90;;;;;;4922652;29;20043;-86
2022/06/02 06:07:42;;;;;;;9.30;4.97;;;30.60;99.90;;;;;;4924790;29;20031;-86
2022/06/02 06:10:46;;;;;;;13.80;4.95;;;30.70;99.90;;;;;;4942231;29;20040;-87
2022/06/02 06:13:43;;;;;;;12.00;4.32;;;30.40;99.90;;;;;;4926560;29;20031;-86
2022/06/02 06:16:39;;;;;;;9.18;5.15;;;29.70;99.90;;;;;;4879450;29;20031;-87
2022/06/02 06:19:42;;;;;;;10.90;5.82;;;29.40;99.90;;;;;;4926333;29;20051;-88
2022/06/02 06:22:35;;;;;;;15.80;6.25;;;29.10;99.90;;;;;;4926276;29;20121;-87
2022/06/02 06:25:24;;;;;;;11.18;5.63;;;29.40;99.90;;;;;;4926339;29;20110;-89
2022/06/02 06:28:01;;;;;;;11.75;4.97;;;29.60;99.90;;;;;;4926254;29;20031;-87
2022/06/02 06:30:49;;;;;;;10.50;5.97;;;29.80;99.90;;;;;;4926125;29;20127;-90
2022/06/02 06:33:16;;;;;;;12.02;5.28;;;30.00;99.90;;;;;;4926085;29;20031;-87
2022/06/02 06:36:18;;;;;;;10.52;4.90;;;29.60;99.90;;;;;;4925476;29;20031;-87
2022/06/02 06:39:22;;;;;;;8.13;5.30;;;29.80;99.90;;;;;;4938472;29;20063;-87
2022/06/02 06:41:59;;;;;;;12.02;5.63;;;30.20;99.90;;;;;;4934068;29;20126;-87
2022/06/02 06:44:53;;;;;;;9.70;5.13;;;30.50;99.90;;;;;;4921348;29;20035;-86
2022/06/02 06:47:29;;;;;;;13.82;5.32;;;30.50;99.90;;;;;;4919884;29;20059;-87
2022/06/02 06:50:23;;;;;;;11.70;5.47;;;30.60;99.90;;;;;;4924599;29;20027;-89
2022/06/02 06:53:21;;;;;;;7.35;4.80;;;31.00;99.90;;;;;;4921587;29;20091;-89
2022/06/02 06:56:04;;;;;;;10.07;5.38;;;31.10;99.90;;;;;;4939234;29;20061;-88
2022/06/02 06:59:03;;;;;;;12.48;5.38;;;31.10;99.90;;;;;;4939084;29;20035;-87
2022/06/02 07:01:53;;;;;;;11.25;5.57;;;31.30;99.90;;;;;;4922763;29;20442;-90
2022/06/02 07:04:46;;;;;;;10.95;5.50;;;31.40;99.90;;;;;;4940300;29;20035;-88
2022/06/02 21:08:28;;;;;;;6.13;2.50;;;24.10;99.90;;;;;;5860588;23;20024;-87
2022/06/02 21:11:06;;;;;;;7.05;2.33;;;24.00;99.90;;;;;;4867315;29;20088;-87
2022/06/02 21:13:47;;;;;;;5.82;2.30;;;24.00;99.90;;;;;;4867315;29;20032;-86
2022/06/02 21:16:28;;;;;;;4.40;2.10;;;23.90;99.90;;;;;;4867152;29;20485;-87
2022/06/02 21:19:19;;;;;;;8.68;3.05;;;23.90;99.90;;;;;;4866243;29;20041;-87
2022/06/02 21:21:49;;;;;;;12.13;2.60;;;23.90;99.90;;;;;;4848678;29;20109;-88
2022/06/02 21:24:23;;;;;;;7.47;2.50;;;23.90;99.90;;;;;;4864084;29;20164;-87
2022/06/02 21:27:16;;;;;;;5.63;2.58;;;23.80;99.90;;;;;;4848676;29;20483;-87
2022/06/02 21:30:06;;;;;;;6.72;2.80;;;23.80;99.90;;;;;;4848599;29;20516;-87
2022/06/02 21:33:00;;;;;;;5.57;2.40;;;23.80;99.90;;;;;;4848836;29;20033;-88
2022/06/02 21:36:08;;;;;;;12.85;3.08;;;23.80;99.90;;;;;;4863914;29;20498;-87
2022/06/02 21:38:55;;;;;;;6.72;2.40;;;23.70;99.90;;;;;;4851408;29;20053;-88
2022/06/02 21:41:38;;;;;;;5.00;2.50;;;23.60;99.90;;;;;;4852726;29;20033;-87
2022/06/02 21:44:45;;;;;;;6.95;2.53;;;23.60;99.90;;;;;;4867677;29;20033;-87
2022/06/02 21:47:27;;;;;;;6.70;2.70;;;23.60;99.90;;;;;;4852774;29;20068;-94
2022/06/02 21:50:06;;;;;;;4.00;2.17;;;23.60;99.90;;;;;;4853380;29;20045;-89
2022/06/02 21:52:53;;;;;;;5.40;2.53;;;23.60;99.90;;;;;;4853514;29;20098;-91
2022/06/02 21:55:35;;;;;;;8.52;2.53;;;23.50;99.90;;;;;;4852236;29;20033;-90
2022/06/02 21:58:19;;;;;;;11.50;2.75;;;23.50;99.90;;;;;;4852091;29;20041;-90
2022/06/02 22:01:09;;;;;;;4.68;2.47;;;23.40;99.90;;;;;;4852149;29;20388;-88
2022/06/02 22:03:47;;;;;;;6.68;3.15;;;23.40;99.90;;;;;;4851880;29;20033;-88
2022/06/02 22:06:31;;;;;;;12.40;3.50;;;23.40;99.90;;;;;;4851973;29;20037;-89
2022/06/02 22:09:16;;;;;;;8.90;2.95;;;23.30;99.90;;;;;;4859698;29;20602;-88
2022/06/02 22:11:51;;;;;;;7.43;3.15;;;23.30;99.90;;;;;;4870545;29;20043;-88
2022/06/02 22:14:48;;;;;;;7.18;3.30;;;23.20;99.90;;;;;;4870315;29;20029;-90
2022/06/02 22:17:31;;;;;;;8.75;3.30;;;23.10;99.90;;;;;;4870270;29;20048;-87
2022/06/02 22:19:58;;;;;;;6.13;3.40;;;23.10;99.90;;;;;;4870274;29;20403;-89
2022/06/02 22:22:36;;;;;;;10.73;3.20;;;23.00;99.90;;;;;;4870175;29;20025;-91
2022/06/02 22:25:06;;;;;;;7.45;3.30;;;22.90;99.90;;;;;;4870515;29;20040;-90
2022/06/02 22:28:00;;;;;;;5.07;2.58;;;22.80;99.90;;;;;;4870068;29;20037;-88
2022/06/02 22:31:04;;;;;;;7.88;2.60;;;22.70;99.90;;;;;;4870530;29;20482;-89
2022/06/02 22:33:54;;;;;;;10.65;3.53;;;22.60;99.90;;;;;;4871629;29;20127;-90
2022/06/02 22:36:38;;;;;;;8.02;2.78;;;22.60;99.90;;;;;;4864942;29;20033;-90
2022/06/02 22:39:33;;;;;;;6.68;2.97;;;22.70;99.90;;;;;;4870567;29;20078;-92
2022/06/02 22:42:12;;;;;;;8.13;2.60;;;22.70;99.90;;;;;;4870407;29;20103;-90
2022/06/02 22:44:57;;;;;;;8.60;2.85;;;22.70;99.90;;;;;;4869651;29;20029;-93
2022/06/02 22:48:00;;;;;;;7.80;2.35;;;22.70;99.90;;;;;;4869628;29;20032;-92
2022/06/02 22:50:29;;;;;;;4.78;2.22;;;22.80;99.90;;;;;;4870147;29;20123;-91
2022/06/02 22:53:25;;;;;;;7.88;1.90;;;22.80;99.90;;;;;;4869708;29;20033;-90
2022/06/02 22:56:09;;;;;;;7.38;2.53;;;22.90;99.90;;;;;;4869589;29;20478;-92
2022/06/02 22:59:14;;;;;;;10.70;2.40;;;22.90;99.90;;;;;;4869500;29;20048;-91
2022/06/02 23:01:44;;;;;;;7.38;2.78;;;22.90;99.90;;;;;;4869573;29;20037;-90
2022/06/02 23:04:24;;;;;;;5.07;2.33;;;22.90;99.90;;;;;;4869653;29;20025;-93
2022/06/02 23:07:15;;;;;;;9.15;2.38;;;22.90;99.90;;;;;;4869340;29;20103;-92
2022/06/02 23:10:00;;;;;;;6.20;2.00;;;22.90;99.90;;;;;;4869556;29;20045;-91
2022/06/02 23:12:57;;;;;;;9.80;2.00;;;22.90;99.90;;;;;;4869452;29;20040;-92
2022/06/02 23:15:45;;;;;;;5.60;2.10;;;22.80;99.90;;;;;;4870456;29;20092;-91
2022/06/02 23:18:22;;;;;;;12.23;2.47;;;22.80;99.90;;;;;;4869244;29;20124;-90
2022/06/02 23:21:16;;;;;;;16.52;2.45;;;22.80;99.90;;;;;;4869223;29;20501;-92
2022/06/02 23:23:46;;;;;;;5.10;2.00;;;22.80;99.90;;;;;;4872071;29;20037;-91
2022/06/02 23:26:55;;;;;;;7.15;2.80;;;22.80;99.90;;;;;;4870309;29;20037;-92
2022/06/02 23:29:40;;;;;;;8.48;2.13;;;22.80;99.90;;;;;;4864021;29;20549;-92
2022/06/02 23:32:10;;;;;;;4.15;2.30;;;22.80;99.90;;;;;;4869821;29;20035;-91
2022/06/02 23:34:51;;;;;;;8.40;2.17;;;22.80;99.90;;;;;;4869824;29;20043;-92
2022/06/02 23:38:07;;;;;;;8.70;2.10;;;22.90;99.90;;;;;;4870134;29;20115;-91
2022/06/02 23:40:43;;;;;;;6.47;2.45;;;22.90;99.90;;;;;;4782857;29;20050;-92
2022/06/02 23:46:19;;;;;;;7.40;2.58;;;22.90;99.90;;;;;;4810346;29;20038;-91
2022/06/02 23:49:16;;;;;;;11.73;2.75;;;22.80;99.90;;;;;;4795884;29;20107;-92
2022/06/02 23:52:01;;;;;;;10.38;2.58;;;22.70;99.90;;;;;;4810283;29;20043;-92
2022/06/02 23:54:59;;;;;;;7.93;2.75;;;22.50;99.90;;;;;;4795215;29;20551;-92
2022/06/02 23:57:48;;;;;;;9.55;3.00;;;22.50;99.90;;;;;;4794915;29;20494;-92
